createdAt,value
2022-11-03T00:01:28.233Z,3.95
2022-11-03T00:06:15.182Z,4.93
2022-11-03T00:11:05.674Z,5.55
2022-11-03T00:15:54.158Z,4.90
2022-11-03T00:20:42.102Z,4.85
2022-11-03T00:25:28.359Z,4.60
2022-11-03T00:30:15.490Z,3.90
2022-11-03T00:35:01.486Z,3.22
2022-11-03T00:39:49.840Z,2.78
2022-11-03T00:44:35.767Z,2.80
2022-11-03T00:49:21.633Z,2.60
2022-11-03T00:54:09.279Z,2.58
2022-11-03T00:58:58.663Z,2.72
2022-11-03T01:04:05.895Z,2.75
2022-11-03T01:08:51.542Z,2.92
2022-11-03T01:13:36.908Z,2.67
2022-11-03T01:18:27.234Z,2.67
2022-11-03T01:23:15.782Z,3.05
2022-11-03T01:28:01.951Z,2.97
2022-11-03T01:32:48.321Z,3.15
2022-11-03T01:37:37.351Z,2.63
2022-11-03T01:42:23.158Z,3.08
2022-11-03T01:47:15.917Z,2.70
2022-11-03T01:52:07.948Z,2.85
2022-11-03T01:56:58.065Z,2.95
2022-11-03T02:01:43.976Z,2.60
2022-11-03T02:06:33.305Z,3.03
2022-11-03T02:11:31.138Z,3.25
2022-11-03T02:16:19.962Z,3.15
2022-11-03T02:21:15.323Z,3.00
2022-11-03T02:26:05.353Z,3.30
2022-11-03T02:31:06.497Z,3.35
2022-11-03T02:35:58.350Z,3.57
2022-11-03T02:40:48.818Z,3.47
2022-11-03T02:45:38.157Z,3.67
2022-11-03T02:50:23.976Z,3.60
2022-11-03T02:55:17.838Z,3.55
2022-11-03T03:00:07.811Z,3.35
2022-11-03T03:05:00.742Z,3.47
2022-11-03T03:09:54.907Z,3.83
2022-11-03T03:14:42.582Z,4.00
2022-11-03T03:19:39.748Z,4.00
2022-11-03T03:24:36.758Z,3.53
2022-11-03T03:29:25.911Z,3.42
2022-11-03T03:34:33.763Z,3.10
2022-11-03T03:39:23.050Z,3.83
2022-11-03T03:44:13.081Z,2.88
2022-11-03T03:48:59.535Z,2.88
2022-11-03T03:53:45.930Z,2.92
2022-11-03T03:58:32.034Z,3.10
2022-11-03T04:03:22.302Z,2.60
2022-11-03T04:08:08.963Z,3.03
2022-11-03T04:13:07.528Z,2.60
2022-11-03T04:18:06.366Z,3.70
2022-11-03T04:22:55.002Z,2.97
2022-11-03T04:27:41.511Z,2.85
2022-11-03T04:32:27.236Z,2.53
2022-11-03T04:37:18.509Z,2.55
2022-11-03T04:42:16.026Z,3.00
2022-11-03T04:47:02.175Z,2.70
2022-11-03T04:51:47.888Z,3.08
2022-11-03T04:56:34.091Z,2.65
2022-11-03T05:01:25.117Z,2.75
2022-11-03T05:06:17.171Z,3.15
2022-11-03T05:11:03.440Z,2.80
2022-11-03T05:15:50.222Z,3.45
2022-11-03T05:20:46.801Z,3.00
2022-11-03T05:25:40.595Z,3.60
2022-11-03T05:30:25.840Z,3.60
2022-11-03T05:35:22.153Z,3.65
2022-11-03T05:40:23.287Z,3.75
2022-11-03T05:45:19.109Z,4.10
2022-11-03T05:50:13.277Z,4.50
2022-11-03T05:55:01.595Z,4.43
2022-11-03T05:59:54.869Z,5.15
2022-11-03T06:04:41.265Z,4.22
2022-11-03T06:09:28.570Z,5.25
2022-11-03T06:14:24.059Z,5.15
2022-11-03T06:19:24.163Z,5.22
2022-11-03T06:24:14.414Z,6.07
2022-11-03T06:28:59.572Z,6.00
2022-11-03T06:33:44.846Z,5.88
2022-11-03T06:38:34.609Z,6.22
2022-11-03T06:43:25.783Z,5.88
2022-11-03T06:48:16.215Z,5.93
2022-11-03T06:53:05.211Z,7.22
2022-11-03T06:57:56.523Z,8.45
2022-11-03T07:02:56.571Z,7.43
2022-11-03T07:07:41.839Z,5.95
2022-11-03T07:12:28.701Z,6.20
2022-11-03T07:17:24.296Z,5.97
2022-11-03T07:22:17.784Z,5.85
2022-11-03T07:27:10.650Z,6.32
2022-11-03T07:31:57.338Z,6.68
2022-11-03T07:36:51.233Z,5.97
2022-11-03T07:41:39.351Z,6.47
2022-11-03T07:46:26.241Z,5.57
2022-11-03T07:51:21.751Z,6.40
2022-11-03T07:56:19.144Z,5.88
2022-11-03T08:01:10.990Z,5.70
2022-11-03T08:10:41.031Z,5.80
2022-11-03T08:15:28.991Z,5.60
2022-11-03T08:20:14.999Z,6.43
2022-11-03T08:25:00.516Z,5.93
2022-11-03T08:29:45.547Z,6.45
2022-11-03T08:34:33.459Z,5.70
2022-11-03T08:39:18.471Z,6.28
2022-11-03T08:44:03.712Z,6.30
2022-11-03T08:48:49.531Z,5.40
2022-11-03T08:53:38.662Z,5.82
2022-11-03T08:58:24.162Z,5.18
2022-11-03T09:03:09.475Z,5.22
2022-11-03T09:13:02.541Z,5.72
2022-11-03T09:17:47.536Z,5.82
2022-11-03T09:22:32.806Z,4.95
2022-11-03T09:27:18.178Z,4.38
2022-11-03T09:32:06.353Z,4.47
2022-11-03T09:36:53.360Z,4.35
2022-11-03T09:41:57.795Z,3.40
2022-11-03T09:46:44.615Z,2.95
2022-11-03T09:51:32.458Z,2.65
2022-11-03T09:56:20.158Z,2.70
2022-11-03T10:01:06.244Z,2.92
2022-11-03T10:05:51.904Z,2.67
2022-11-03T10:10:39.978Z,3.25
2022-11-03T10:15:28.348Z,3.45
2022-11-03T10:20:15.320Z,3.08
2022-11-03T10:25:31.113Z,3.63
2022-11-03T10:30:19.042Z,3.80
2022-11-03T10:35:04.027Z,3.30
2022-11-03T10:39:50.118Z,3.65
2022-11-03T10:44:35.175Z,3.90
2022-11-03T10:49:23.351Z,3.78
2022-11-03T10:54:13.102Z,3.70
2022-11-03T11:04:04.613Z,4.47
2022-11-03T11:08:59.801Z,4.75
2022-11-03T11:13:45.472Z,3.40
2022-11-03T11:19:12.741Z,3.22
2022-11-03T11:24:00.675Z,2.92
2022-11-03T11:28:49.059Z,2.80
2022-11-03T11:33:36.158Z,3.40
2022-11-03T11:38:47.647Z,3.38
2022-11-03T11:43:35.529Z,2.92
2022-11-03T11:48:21.351Z,2.63
2022-11-03T11:53:26.134Z,3.40
2022-11-03T11:58:21.707Z,2.85
2022-11-03T12:03:10.128Z,3.50
2022-11-03T12:07:55.631Z,3.28
2022-11-03T12:12:40.617Z,3.03
2022-11-03T12:17:39.460Z,3.58
2022-11-03T12:22:45.781Z,2.95
2022-11-03T12:27:46.751Z,3.80
2022-11-03T12:32:35.076Z,4.40
2022-11-03T12:37:20.499Z,3.28
2022-11-03T12:42:09.288Z,3.67
2022-11-03T12:46:54.359Z,3.83
2022-11-03T12:51:39.647Z,4.00
2022-11-03T12:56:24.655Z,3.50
2022-11-03T13:01:13.107Z,3.50
2022-11-03T13:05:58.608Z,3.58
2022-11-03T13:10:43.903Z,2.38
2022-11-03T13:15:28.872Z,2.80
2022-11-03T13:20:17.500Z,2.63
2022-11-03T13:25:02.467Z,2.38
2022-11-03T13:29:47.759Z,1.65
2022-11-03T13:34:32.759Z,1.35
2022-11-03T13:39:21.507Z,1.20
2022-11-03T13:44:06.650Z,1.05
2022-11-03T13:49:43.829Z,1.33
2022-11-03T14:09:17.933Z,0.93
2022-11-03T14:14:05.619Z,1.10
2022-11-03T14:18:50.909Z,1.00
2022-11-03T14:23:35.880Z,1.00
2022-11-03T14:28:26.034Z,1.63
2022-11-03T14:33:14.182Z,1.25
2022-11-03T14:37:59.680Z,1.70
2022-11-03T14:42:44.699Z,3.72
2022-11-03T14:47:31.615Z,1.55
2022-11-03T14:52:20.009Z,1.73
2022-11-03T14:57:05.900Z,1.83
2022-11-03T15:01:52.493Z,2.33
2022-11-03T15:06:37.898Z,2.17
2022-11-03T15:11:25.499Z,3.00
2022-11-03T15:16:10.937Z,2.10
2022-11-03T15:20:56.136Z,2.83
2022-11-03T15:25:41.609Z,3.00
2022-11-03T15:30:29.875Z,2.65
2022-11-03T15:35:15.718Z,3.30
2022-11-03T15:40:00.733Z,3.53
2022-11-03T15:44:45.988Z,3.92
2022-11-03T15:49:33.636Z,3.72
2022-11-03T15:54:18.899Z,4.20
2022-11-03T15:59:03.864Z,3.00
2022-11-03T16:03:49.135Z,3.22
2022-11-03T16:08:36.768Z,3.30
2022-11-03T16:13:22.054Z,3.10
2022-11-03T16:18:07.542Z,3.45
2022-11-03T16:28:01.021Z,3.05
2022-11-03T16:32:46.067Z,2.72
2022-11-03T16:37:31.446Z,2.35
2022-11-03T16:42:16.442Z,2.60
2022-11-03T16:47:04.731Z,3.10
2022-11-03T16:51:49.799Z,3.03
2022-11-03T16:56:35.148Z,2.97
2022-11-03T17:01:20.242Z,3.58
2022-11-03T17:06:08.520Z,3.40
2022-11-03T17:10:53.577Z,3.10
2022-11-03T17:15:39.393Z,3.03
2022-11-03T17:20:25.001Z,2.47
2022-11-03T17:25:14.956Z,3.47
2022-11-03T17:30:02.945Z,2.40
2022-11-03T17:34:48.415Z,2.95
2022-11-03T17:39:38.053Z,2.58
2022-11-03T17:44:26.368Z,2.72
2022-11-03T17:49:11.434Z,3.20
2022-11-03T17:53:56.834Z,3.33
2022-11-03T17:58:46.620Z,2.38
2022-11-03T18:03:35.501Z,2.88
2022-11-03T18:08:21.280Z,3.20
2022-11-03T18:13:20.338Z,3.47
2022-11-03T18:18:11.128Z,3.08
2022-11-03T18:23:08.827Z,2.88
2022-11-03T18:27:54.283Z,2.83
2022-11-03T18:32:40.743Z,2.92
2022-11-03T18:37:25.761Z,3.20
2022-11-03T18:42:17.799Z,3.13
2022-11-03T18:47:02.809Z,3.42
2022-11-03T18:51:51.460Z,4.10
2022-11-03T18:56:38.274Z,3.70
2022-11-03T19:01:28.342Z,3.88
2022-11-03T19:06:13.648Z,1.73
2022-11-03T19:11:03.821Z,2.22
2022-11-03T19:15:49.444Z,2.05
2022-11-03T19:20:37.414Z,3.50
2022-11-03T19:25:22.704Z,3.30
2022-11-03T19:30:09.287Z,4.45
2022-11-03T19:35:00.225Z,5.03
2022-11-03T19:39:48.575Z,6.77
2022-11-03T19:49:38.884Z,3.35
2022-11-03T19:54:26.098Z,3.45
2022-11-03T19:59:16.049Z,3.10
2022-11-03T20:04:01.193Z,2.83
2022-11-03T20:08:47.698Z,3.88
2022-11-03T20:13:37.669Z,3.80
2022-11-03T20:18:25.856Z,3.65
2022-11-03T20:23:19.996Z,6.78
2022-11-03T20:28:16.958Z,5.03
2022-11-03T20:33:01.987Z,3.88
2022-11-03T20:37:53.052Z,3.38
2022-11-03T20:42:38.092Z,2.88
2022-11-03T20:47:23.427Z,3.10
2022-11-03T20:52:09.174Z,3.00
2022-11-03T20:56:57.058Z,3.17
2022-11-03T21:01:43.438Z,3.95
2022-11-03T21:06:29.358Z,4.45
2022-11-03T21:11:28.423Z,3.85
2022-11-03T21:16:43.550Z,4.93
2022-11-03T21:21:28.835Z,3.28
2022-11-03T21:26:15.396Z,3.60
2022-11-03T21:31:00.839Z,3.28
2022-11-03T21:35:50.644Z,4.07
2022-11-03T21:40:36.157Z,2.88
2022-11-03T21:45:21.658Z,2.90
2022-11-03T21:50:07.572Z,2.70
2022-11-03T21:54:55.197Z,2.50
2022-11-03T21:59:40.844Z,2.92
2022-11-03T22:04:25.948Z,3.72
2022-11-03T22:09:11.245Z,3.53
2022-11-03T22:14:00.420Z,2.90
2022-11-03T22:18:45.711Z,3.28
2022-11-03T22:23:43.072Z,3.80
2022-11-03T22:28:28.431Z,3.33
2022-11-03T22:33:16.152Z,4.45
2022-11-03T22:38:05.731Z,3.28
2022-11-03T22:43:03.205Z,4.05
2022-11-03T22:47:48.512Z,3.78
2022-11-03T22:52:36.140Z,3.53
2022-11-03T22:57:21.468Z,3.55
2022-11-03T23:02:06.762Z,3.65
2022-11-03T23:06:52.165Z,3.70
2022-11-03T23:11:39.920Z,3.28
2022-11-03T23:16:28.023Z,3.15
2022-11-03T23:21:11.180Z,3.72
2022-11-03T23:25:57.104Z,4.38
2022-11-03T23:30:46.035Z,4.30
2022-11-03T23:35:31.335Z,4.45
2022-11-03T23:40:20.480Z,3.47
2022-11-03T23:45:19.979Z,3.40
2022-11-03T23:50:08.490Z,4.07
2022-11-03T23:54:53.852Z,3.90
2022-11-03T23:59:38.961Z,4.10
